Time;durP1;ratioP1;P1;durP2;ratioP2;P2;SDS_P1;SDS_P2;PMS_P1;PMS_P2;Temp;Humidity;BMP_temperature;BMP_pressure;BME280_temperature;BME280_humidity;BME280_pressure;Samples;Min_cycle;Max_cycle;Signal;HPM_P1;HPM_P2
2023/03/20 00:01:51;;;;;;;7.80;3.85;;;;;;;;;;5091265;28;20032;-61
2023/03/20 00:04:17;;;;;;;5.55;3.50;;;;;;;;;;5092576;28;20543;-60
2023/03/20 00:06:43;;;;;;;4.30;3.50;;;;;;;;;;5100877;28;20103;-60
2023/03/20 00:09:11;;;;;;;6.78;3.75;;;;;;;;;;5111523;28;20545;-60
2023/03/20 00:11:40;;;;;;;7.15;4.35;;;;;;;;;;5110477;28;20077;-61
2023/03/20 00:14:08;;;;;;;4.32;3.42;;;;;;;;;;5094792;28;20059;-60
2023/03/20 00:16:42;;;;;;;6.65;4.05;;;;;;;;;;5090940;28;20471;-60
2023/03/20 00:19:22;;;;;;;8.77;4.10;;;;;;;;;;5091628;28;20069;-59
2023/03/20 00:21:48;;;;;;;5.13;3.60;;;;;;;;;;5103576;28;20058;-61
2023/03/20 00:24:15;;;;;;;6.25;3.72;;;;;;;;;;5096293;28;20059;-61
2023/03/20 00:26:42;;;;;;;5.65;3.67;;;;;;;;;;5109303;28;20073;-61
2023/03/20 00:29:14;;;;;;;6.18;3.72;;;;;;;;;;5097591;28;20164;-60
2023/03/20 00:31:39;;;;;;;7.47;3.70;;;;;;;;;;5103015;28;20510;-61
2023/03/20 00:34:07;;;;;;;4.78;2.92;;;;;;;;;;5091199;28;20020;-60
2023/03/20 00:36:33;;;;;;;7.70;3.75;;;;;;;;;;5090506;28;20114;-61
2023/03/20 00:38:59;;;;;;;4.72;3.38;;;;;;;;;;5091185;28;20024;-61
2023/03/20 00:41:25;;;;;;;5.05;3.78;;;;;;;;;;5091539;28;20070;-61
2023/03/20 00:43:53;;;;;;;7.28;4.13;;;;;;;;;;5090639;28;20077;-61
2023/03/20 00:46:19;;;;;;;6.72;3.55;;;;;;;;;;5091221;28;20032;-60
2023/03/20 00:48:46;;;;;;;5.80;3.83;;;;;;;;;;5090638;28;20081;-60
2023/03/20 00:51:12;;;;;;;6.40;3.25;;;;;;;;;;5090820;28;20076;-61
2023/03/20 00:53:38;;;;;;;6.28;3.83;;;;;;;;;;5091465;28;20024;-60
2023/03/20 00:56:06;;;;;;;5.72;3.78;;;;;;;;;;5095106;28;20043;-60
2023/03/20 00:58:32;;;;;;;3.70;2.88;;;;;;;;;;5094862;28;20024;-60
2023/03/20 01:00:58;;;;;;;6.43;3.75;;;;;;;;;;5095218;28;20107;-60
2023/03/20 01:03:25;;;;;;;6.47;3.85;;;;;;;;;;5095385;28;20063;-60
2023/03/20 01:05:51;;;;;;;7.93;3.35;;;;;;;;;;5108989;28;20554;-60
2023/03/20 01:08:22;;;;;;;5.40;3.75;;;;;;;;;;5097448;28;20028;-60
2023/03/20 01:10:50;;;;;;;6.55;3.88;;;;;;;;;;5094415;28;20032;-60
2023/03/20 01:13:26;;;;;;;5.15;3.15;;;;;;;;;;5095874;28;20503;-60
2023/03/20 01:15:53;;;;;;;4.68;3.10;;;;;;;;;;5094373;28;20036;-60
2023/03/20 01:18:20;;;;;;;5.50;3.75;;;;;;;;;;5094789;28;20031;-60
2023/03/20 01:20:46;;;;;;;5.93;3.58;;;;;;;;;;5097947;28;20036;-60
2023/03/20 01:23:12;;;;;;;5.32;3.58;;;;;;;;;;5094672;28;20027;-60
2023/03/20 01:25:39;;;;;;;4.57;3.20;;;;;;;;;;5094379;28;20058;-60
2023/03/20 01:28:13;;;;;;;6.57;3.78;;;;;;;;;;5100517;28;20077;-60
2023/03/20 01:30:39;;;;;;;5.27;3.40;;;;;;;;;;5104197;28;20038;-60
2023/03/20 01:33:16;;;;;;;6.53;3.42;;;;;;;;;;5103573;28;20312;-61
2023/03/20 01:35:42;;;;;;;5.50;2.85;;;;;;;;;;5093775;28;20495;-60
2023/03/20 01:38:24;;;;;;;4.60;3.05;;;;;;;;;;5094279;28;20028;-60
2023/03/20 01:40:50;;;;;;;6.47;3.40;;;;;;;;;;5093925;28;20057;-60
2023/03/20 01:43:17;;;;;;;5.90;3.03;;;;;;;;;;5101965;28;20019;-60
2023/03/20 01:45:49;;;;;;;5.28;3.47;;;;;;;;;;5097951;28;20043;-60
2023/03/20 01:48:16;;;;;;;5.47;3.03;;;;;;;;;;5094249;28;20419;-60
2023/03/20 01:50:42;;;;;;;5.72;3.10;;;;;;;;;;5093542;28;20024;-61
2023/03/20 01:53:11;;;;;;;5.72;3.20;;;;;;;;;;5095105;28;20537;-60
2023/03/20 01:55:38;;;;;;;6.18;3.40;;;;;;;;;;5093732;28;20078;-60
2023/03/20 01:58:07;;;;;;;5.13;2.92;;;;;;;;;;5094096;28;20047;-60
2023/03/20 02:00:33;;;;;;;6.07;3.05;;;;;;;;;;5093510;28;20047;-60
2023/03/20 02:02:59;;;;;;;6.22;2.90;;;;;;;;;;5097898;28;20510;-60
2023/03/20 02:05:26;;;;;;;6.20;3.67;;;;;;;;;;5110891;28;20024;-60
2023/03/20 02:08:02;;;;;;;5.22;3.35;;;;;;;;;;5093644;28;20388;-60
2023/03/20 02:10:28;;;;;;;4.25;2.47;;;;;;;;;;5093848;28;20052;-60
2023/03/20 02:12:54;;;;;;;7.88;3.58;;;;;;;;;;5098806;28;20028;-60
2023/03/20 02:15:20;;;;;;;4.68;2.90;;;;;;;;;;5101278;27;20085;-60
2023/03/20 02:17:46;;;;;;;5.93;3.00;;;;;;;;;;5093469;28;20035;-60
2023/03/20 02:20:22;;;;;;;5.50;2.85;;;;;;;;;;5108662;28;20520;-60
2023/03/20 02:22:54;;;;;;;5.22;2.83;;;;;;;;;;5075645;28;20036;-60
2023/03/20 02:25:23;;;;;;;5.40;2.67;;;;;;;;;;5084236;28;20020;-60
2023/03/20 02:27:52;;;;;;;6.03;3.33;;;;;;;;;;5109533;28;20031;-60
2023/03/20 02:30:18;;;;;;;6.20;3.03;;;;;;;;;;5100599;28;20228;-60
2023/03/20 02:33:02;;;;;;;5.32;2.90;;;;;;;;;;5097549;28;20028;-60
2023/03/20 02:35:41;;;;;;;6.55;2.92;;;;;;;;;;5092714;28;20028;-60
2023/03/20 02:38:25;;;;;;;6.32;2.92;;;;;;;;;;5093331;28;20434;-60
2023/03/20 02:41:13;;;;;;;5.22;2.50;;;;;;;;;;5093038;28;20107;-60
2023/03/20 02:43:45;;;;;;;5.10;2.55;;;;;;;;;;5092916;28;20021;-60
2023/03/20 02:46:16;;;;;;;6.13;2.53;;;;;;;;;;5093168;28;20113;-60
2023/03/20 02:48:47;;;;;;;6.32;3.05;;;;;;;;;;5092780;28;20384;-60
2023/03/20 02:51:20;;;;;;;9.45;3.03;;;;;;;;;;5093065;28;20070;-61
2023/03/20 02:53:54;;;;;;;4.78;2.45;;;;;;;;;;5092414;28;20034;-60
2023/03/20 02:56:20;;;;;;;4.50;2.33;;;;;;;;;;5092855;28;20059;-60
2023/03/20 02:58:53;;;;;;;4.60;2.80;;;;;;;;;;5092753;28;20035;-60
2023/03/20 03:01:32;;;;;;;6.90;2.92;;;;;;;;;;5092486;28;20034;-60
2023/03/20 03:04:18;;;;;;;7.65;3.28;;;;;;;;;;5093971;28;20075;-60
2023/03/20 03:06:47;;;;;;;6.15;2.67;;;;;;;;;;5104438;28;20058;-60
2023/03/20 03:09:17;;;;;;;4.97;2.50;;;;;;;;;;5103303;28;20464;-60
2023/03/20 03:11:47;;;;;;;7.10;2.70;;;;;;;;;;5092052;28;20153;-60
2023/03/20 03:14:16;;;;;;;4.75;2.75;;;;;;;;;;5104638;28;20045;-60
2023/03/20 03:16:44;;;;;;;4.63;2.90;;;;;;;;;;5092084;28;20382;-60
2023/03/20 03:19:15;;;;;;;7.30;2.92;;;;;;;;;;5092443;28;20468;-60
2023/03/20 03:21:41;;;;;;;5.57;2.45;;;;;;;;;;5093174;28;20032;-60
2023/03/20 03:24:19;;;;;;;5.90;3.22;;;;;;;;;;5092124;28;20024;-60
2023/03/20 03:26:45;;;;;;;5.47;2.72;;;;;;;;;;5092269;28;20365;-60
2023/03/20 03:29:13;;;;;;;6.32;2.58;;;;;;;;;;5092225;28;20020;-60
2023/03/20 03:31:39;;;;;;;3.78;2.25;;;;;;;;;;5092873;28;20032;-60
2023/03/20 03:34:05;;;;;;;5.22;2.25;;;;;;;;;;5091937;28;20036;-60
2023/03/20 03:36:34;;;;;;;4.28;2.28;;;;;;;;;;5092700;28;20047;-61
2023/03/20 03:39:05;;;;;;;7.13;2.33;;;;;;;;;;5091927;28;20020;-60
2023/03/20 03:41:34;;;;;;;6.13;2.85;;;;;;;;;;5091752;28;20036;-60
2023/03/20 03:43:59;;;;;;;3.95;2.53;;;;;;;;;;5097578;28;20041;-60
2023/03/20 03:46:35;;;;;;;5.68;2.60;;;;;;;;;;5098478;28;20110;-60
2023/03/20 03:49:03;;;;;;;5.05;2.80;;;;;;;;;;5091992;28;20024;-60
2023/03/20 03:51:31;;;;;;;5.70;2.67;;;;;;;;;;5095103;28;20096;-60
2023/03/20 03:54:00;;;;;;;5.45;3.17;;;;;;;;;;5112514;28;20410;-60
2023/03/20 03:56:27;;;;;;;5.60;2.50;;;;;;;;;;5112063;28;20036;-60
2023/03/20 03:58:56;;;;;;;5.35;2.60;;;;;;;;;;5110168;28;20081;-60
2023/03/20 04:01:23;;;;;;;5.00;2.22;;;;;;;;;;5075300;28;20032;-60
2023/03/20 04:03:51;;;;;;;5.20;2.33;;;;;;;;;;5091159;28;20035;-60
2023/03/20 04:06:17;;;;;;;4.32;2.08;;;;;;;;;;5101601;28;20027;-60
2023/03/20 04:08:43;;;;;;;4.68;2.15;;;;;;;;;;5111817;28;20047;-60
2023/03/20 04:11:15;;;;;;;5.40;2.60;;;;;;;;;;5101562;27;20118;-60
2023/03/20 04:13:41;;;;;;;5.07;2.45;;;;;;;;;;5111051;28;20023;-60
2023/03/20 04:16:10;;;;;;;5.13;2.72;;;;;;;;;;5098140;28;20556;-60
2023/03/20 04:18:36;;;;;;;5.88;2.72;;;;;;;;;;5091200;28;20408;-60
2023/03/20 04:21:03;;;;;;;4.50;2.03;;;;;;;;;;5095159;28;20057;-60
2023/03/20 04:23:29;;;;;;;4.53;2.47;;;;;;;;;;5111646;28;20088;-60
2023/03/20 04:25:55;;;;;;;4.70;1.92;;;;;;;;;;5105607;28;20028;-60
2023/03/20 04:28:21;;;;;;;3.78;2.15;;;;;;;;;;5089981;28;20031;-60
2023/03/20 04:30:57;;;;;;;3.17;1.88;;;;;;;;;;5092197;28;20032;-60
2023/03/20 04:33:24;;;;;;;4.72;2.05;;;;;;;;;;5102018;28;20341;-60
2023/03/20 04:35:50;;;;;;;5.05;2.75;;;;;;;;;;5090929;28;20071;-60
2023/03/20 04:38:17;;;;;;;4.95;1.90;;;;;;;;;;5091064;28;20077;-61
2023/03/20 04:40:46;;;;;;;3.92;2.13;;;;;;;;;;5090895;28;20031;-61
2023/03/20 04:43:12;;;;;;;6.22;2.45;;;;;;;;;;5089919;28;20032;-60
2023/03/20 04:45:38;;;;;;;6.10;2.53;;;;;;;;;;5090699;28;20455;-61
2023/03/20 04:48:04;;;;;;;5.63;2.63;;;;;;;;;;5091077;28;20373;-60
2023/03/20 04:50:30;;;;;;;4.68;2.17;;;;;;;;;;5090610;28;20027;-60
2023/03/20 04:52:57;;;;;;;5.35;2.65;;;;;;;;;;5091099;28;20108;-60
2023/03/20 04:55:23;;;;;;;5.35;2.08;;;;;;;;;;5089064;28;20039;-60
2023/03/20 04:57:49;;;;;;;5.57;2.30;;;;;;;;;;5090707;28;20063;-60
2023/03/20 05:00:16;;;;;;;3.63;2.17;;;;;;;;;;5090708;28;20024;-60
2023/03/20 05:02:42;;;;;;;5.07;2.40;;;;;;;;;;5090786;28;20103;-60
2023/03/20 05:05:08;;;;;;;3.72;1.90;;;;;;;;;;5091940;28;20030;-60
2023/03/20 05:07:34;;;;;;;4.30;2.20;;;;;;;;;;5108969;28;20035;-60
2023/03/20 05:10:00;;;;;;;4.78;2.50;;;;;;;;;;5093593;28;20028;-60
2023/03/20 05:12:26;;;;;;;3.83;1.92;;;;;;;;;;5109052;28;20563;-60
2023/03/20 05:14:53;;;;;;;5.57;2.42;;;;;;;;;;5106078;28;20392;-60
2023/03/20 05:17:20;;;;;;;4.18;2.33;;;;;;;;;;5094602;28;20099;-60
2023/03/20 05:19:46;;;;;;;5.10;2.38;;;;;;;;;;5098795;28;20051;-60
2023/03/20 05:22:12;;;;;;;6.07;2.30;;;;;;;;;;5090483;28;20024;-60
2023/03/20 05:24:38;;;;;;;6.80;2.22;;;;;;;;;;5090240;28;20103;-60
2023/03/20 05:27:04;;;;;;;4.38;2.20;;;;;;;;;;5090434;28;20448;-60
2023/03/20 05:29:30;;;;;;;5.03;2.08;;;;;;;;;;5090552;28;20369;-60
2023/03/20 05:31:56;;;;;;;5.35;2.30;;;;;;;;;;5090817;28;20111;-60
2023/03/20 05:34:22;;;;;;;3.83;1.73;;;;;;;;;;5090101;28;20114;-60
2023/03/20 05:36:48;;;;;;;7.93;3.35;;;;;;;;;;5098788;28;20035;-60
2023/03/20 05:39:15;;;;;;;4.10;2.05;;;;;;;;;;5098466;28;20036;-60
2023/03/20 05:41:41;;;;;;;3.58;1.65;;;;;;;;;;5094863;28;20036;-60
2023/03/20 05:44:07;;;;;;;5.18;2.30;;;;;;;;;;5094082;28;20081;-60
2023/03/20 05:46:33;;;;;;;4.45;1.95;;;;;;;;;;5094080;28;20024;-63
2023/03/20 05:48:59;;;;;;;5.40;2.50;;;;;;;;;;5095611;28;20507;-60
2023/03/20 05:51:25;;;;;;;4.13;1.90;;;;;;;;;;5104804;28;20015;-60
2023/03/20 05:53:51;;;;;;;4.30;1.90;;;;;;;;;;5093784;28;20347;-59
2023/03/20 05:56:17;;;;;;;5.10;2.10;;;;;;;;;;5100604;28;20107;-60
2023/03/20 05:58:44;;;;;;;5.88;2.25;;;;;;;;;;5113771;28;20023;-60
2023/03/20 06:01:10;;;;;;;4.88;1.83;;;;;;;;;;5114134;28;20032;-60
2023/03/20 06:03:36;;;;;;;3.75;2.00;;;;;;;;;;5099430;28;20024;-60
2023/03/20 06:06:02;;;;;;;3.70;1.98;;;;;;;;;;5110098;28;20463;-60
2023/03/20 06:08:29;;;;;;;5.05;2.03;;;;;;;;;;5112137;28;20024;-60
2023/03/20 06:10:55;;;;;;;5.38;2.00;;;;;;;;;;5095435;28;20097;-59
2023/03/20 06:13:21;;;;;;;5.45;2.00;;;;;;;;;;5094279;28;20062;-60
2023/03/20 06:15:47;;;;;;;4.65;2.20;;;;;;;;;;5094751;28;20032;-60
2023/03/20 06:18:13;;;;;;;3.28;1.85;;;;;;;;;;5094126;28;20054;-60
2023/03/20 06:20:39;;;;;;;4.53;1.80;;;;;;;;;;5095197;28;20036;-60
2023/03/20 06:23:05;;;;;;;5.60;2.35;;;;;;;;;;5104022;28;20108;-60
2023/03/20 06:25:31;;;;;;;3.60;1.38;;;;;;;;;;5092403;28;20031;-61
2023/03/20 06:27:57;;;;;;;5.32;1.63;;;;;;;;;;5093642;28;20095;-59
2023/03/20 06:30:23;;;;;;;5.88;1.90;;;;;;;;;;5093304;28;20059;-60
2023/03/20 06:32:49;;;;;;;4.40;2.00;;;;;;;;;;5100659;28;20024;-60
2023/03/20 06:35:16;;;;;;;6.80;1.80;;;;;;;;;;5097209;28;20036;-60
2023/03/20 06:37:42;;;;;;;3.92;1.75;;;;;;;;;;5100314;28;20046;-60
2023/03/20 06:40:09;;;;;;;6.50;1.83;;;;;;;;;;5100868;28;20032;-60
2023/03/20 06:42:35;;;;;;;2.88;1.70;;;;;;;;;;5098556;28;20036;-60
2023/03/20 06:45:01;;;;;;;4.15;1.65;;;;;;;;;;5113986;28;20034;-60
2023/03/20 06:47:27;;;;;;;4.25;1.67;;;;;;;;;;5109910;28;20468;-60
2023/03/20 06:49:53;;;;;;;6.57;2.00;;;;;;;;;;5110465;28;20080;-60
2023/03/20 06:52:21;;;;;;;4.28;1.60;;;;;;;;;;5108788;28;20042;-59
2023/03/20 06:54:47;;;;;;;7.30;2.10;;;;;;;;;;5092724;28;20051;-60
2023/03/20 06:57:17;;;;;;;5.50;2.10;;;;;;;;;;5093127;28;20024;-59
2023/03/20 06:59:43;;;;;;;6.35;1.95;;;;;;;;;;5092278;28;20028;-59
2023/03/20 07:02:10;;;;;;;6.57;1.90;;;;;;;;;;5093235;28;20325;-61
2023/03/20 07:04:36;;;;;;;6.05;2.20;;;;;;;;;;5092190;28;20028;-60
2023/03/20 07:07:02;;;;;;;7.57;2.53;;;;;;;;;;5093102;28;20026;-61
2023/03/20 07:09:28;;;;;;;6.72;2.90;;;;;;;;;;5100842;28;20458;-60
2023/03/20 07:11:54;;;;;;;6.57;2.90;;;;;;;;;;5102769;28;20039;-61
2023/03/20 07:14:21;;;;;;;5.13;2.83;;;;;;;;;;5092251;28;20047;-61
2023/03/20 07:16:47;;;;;;;5.55;3.30;;;;;;;;;;5092496;28;20055;-61
2023/03/20 07:19:13;;;;;;;5.82;3.05;;;;;;;;;;5092336;28;20481;-60
2023/03/20 07:21:39;;;;;;;5.85;3.03;;;;;;;;;;5096372;28;20038;-60
2023/03/20 07:24:08;;;;;;;7.20;2.97;;;;;;;;;;5113141;28;20019;-60
2023/03/20 07:26:34;;;;;;;6.43;2.92;;;;;;;;;;5107147;28;20106;-61
2023/03/20 07:29:01;;;;;;;6.00;2.88;;;;;;;;;;5112621;28;20106;-61
2023/03/20 07:31:31;;;;;;;6.03;2.78;;;;;;;;;;5111200;27;20418;-61
2023/03/20 07:33:57;;;;;;;5.93;2.85;;;;;;;;;;5112441;28;20039;-61
2023/03/20 07:36:23;;;;;;;5.57;2.70;;;;;;;;;;5108260;28;20028;-61
2023/03/20 07:38:49;;;;;;;6.30;3.20;;;;;;;;;;5092417;28;20077;-60
2023/03/20 07:41:15;;;;;;;4.85;2.42;;;;;;;;;;5092394;28;20031;-61
2023/03/20 07:43:41;;;;;;;6.15;2.67;;;;;;;;;;5111855;28;20039;-61
2023/03/20 07:46:08;;;;;;;4.68;2.60;;;;;;;;;;5112559;28;20027;-61
2023/03/20 07:48:35;;;;;;;7.32;3.47;;;;;;;;;;5111285;28;20028;-61
2023/03/20 07:51:01;;;;;;;4.32;2.17;;;;;;;;;;5112238;28;20031;-61
2023/03/20 07:53:27;;;;;;;7.05;2.90;;;;;;;;;;5112134;28;20846;-61
2023/03/20 07:55:53;;;;;;;5.03;2.45;;;;;;;;;;5112181;28;20036;-61
2023/03/20 07:58:19;;;;;;;6.13;2.88;;;;;;;;;;5104366;28;20502;-60
2023/03/20 08:00:45;;;;;;;5.28;2.60;;;;;;;;;;5096447;28;20488;-60
2023/03/20 08:03:11;;;;;;;6.78;3.05;;;;;;;;;;5091022;28;20109;-60
2023/03/20 08:05:37;;;;;;;6.15;2.80;;;;;;;;;;5091489;28;20052;-60
2023/03/20 08:08:04;;;;;;;7.35;2.47;;;;;;;;;;5091844;28;20077;-60
2023/03/20 08:10:30;;;;;;;6.95;2.60;;;;;;;;;;5091321;28;20247;-61
2023/03/20 08:12:56;;;;;;;10.10;2.85;;;;;;;;;;5091749;28;20024;-60
2023/03/20 08:15:22;;;;;;;6.43;2.80;;;;;;;;;;5091270;28;20036;-60
2023/03/20 08:17:48;;;;;;;5.60;2.35;;;;;;;;;;5091662;28;20020;-60
2023/03/20 08:20:15;;;;;;;7.30;2.60;;;;;;;;;;5091472;28;20059;-60
2023/03/20 08:22:41;;;;;;;5.32;2.63;;;;;;;;;;5091140;28;20373;-60
2023/03/20 08:25:08;;;;;;;8.18;2.40;;;;;;;;;;5091652;28;20526;-61
2023/03/20 08:27:37;;;;;;;8.43;2.50;;;;;;;;;;5091506;28;20050;-60
2023/03/20 08:30:04;;;;;;;5.45;2.80;;;;;;;;;;5091366;28;20148;-60
2023/03/20 08:32:30;;;;;;;8.00;3.00;;;;;;;;;;5090996;28;20032;-59
2023/03/20 08:34:56;;;;;;;4.35;2.30;;;;;;;;;;5091195;28;20106;-60
2023/03/20 08:37:22;;;;;;;5.40;2.50;;;;;;;;;;5091092;28;20107;-60
2023/03/20 08:39:48;;;;;;;7.07;3.22;;;;;;;;;;5091337;28;20362;-60
2023/03/20 08:42:14;;;;;;;5.80;2.38;;;;;;;;;;5091348;28;20103;-60
2023/03/20 08:44:41;;;;;;;5.45;2.13;;;;;;;;;;5090900;28;20024;-60
2023/03/20 08:47:09;;;;;;;4.38;2.42;;;;;;;;;;5091360;28;20055;-61
2023/03/20 08:49:35;;;;;;;5.40;2.45;;;;;;;;;;5091151;28;20024;-60
2023/03/20 08:52:01;;;;;;;5.30;2.20;;;;;;;;;;5091171;28;20472;-60
2023/03/20 08:54:27;;;;;;;4.55;2.05;;;;;;;;;;5090747;28;20024;-60
2023/03/20 08:56:53;;;;;;;6.32;2.60;;;;;;;;;;5091139;28;20165;-60
2023/03/20 08:59:20;;;;;;;7.38;3.05;;;;;;;;;;5090880;28;20091;-60
2023/03/20 09:01:46;;;;;;;5.88;2.28;;;;;;;;;;5090960;28;20028;-60
2023/03/20 09:04:15;;;;;;;4.72;2.03;;;;;;;;;;5091076;28;20032;-60
2023/03/20 09:06:41;;;;;;;5.60;2.08;;;;;;;;;;5090970;28;20500;-60
2023/03/20 09:09:07;;;;;;;5.07;2.00;;;;;;;;;;5091355;28;20032;-60
2023/03/20 09:11:33;;;;;;;8.73;2.35;;;;;;;;;;5090821;28;20387;-60
2023/03/20 09:14:00;;;;;;;6.03;2.38;;;;;;;;;;5090848;28;20024;-60
2023/03/20 09:16:26;;;;;;;4.35;2.10;;;;;;;;;;5094619;28;20050;-60
2023/03/20 09:18:53;;;;;;;5.03;2.20;;;;;;;;;;5094831;28;20517;-60
2023/03/20 09:21:19;;;;;;;5.95;2.47;;;;;;;;;;5094969;28;20024;-60
2023/03/20 09:23:46;;;;;;;5.40;2.05;;;;;;;;;;5094887;28;20433;-60
2023/03/20 09:26:12;;;;;;;4.75;2.47;;;;;;;;;;5094836;28;20028;-60
2023/03/20 09:28:38;;;;;;;4.93;2.10;;;;;;;;;;5094752;28;20145;-60
2023/03/20 09:31:04;;;;;;;4.00;2.20;;;;;;;;;;5094680;28;20020;-61
2023/03/20 09:33:30;;;;;;;4.75;1.70;;;;;;;;;;5094465;28;20028;-60
2023/03/20 09:35:56;;;;;;;6.95;2.70;;;;;;;;;;5094464;28;20065;-60
2023/03/20 09:38:23;;;;;;;5.00;2.00;;;;;;;;;;5094324;28;20476;-60
2023/03/20 09:40:52;;;;;;;6.40;2.17;;;;;;;;;;5094415;28;20447;-60
2023/03/20 09:43:17;;;;;;;5.03;2.28;;;;;;;;;;5094361;28;20116;-60
2023/03/20 09:45:50;;;;;;;5.18;2.20;;;;;;;;;;5094447;28;20043;-60
2023/03/20 09:48:22;;;;;;;4.32;2.13;;;;;;;;;;5094453;28;20020;-59
2023/03/20 09:50:54;;;;;;;4.72;2.38;;;;;;;;;;5094403;28;20024;-59
2023/03/20 09:53:25;;;;;;;6.32;1.92;;;;;;;;;;5093875;28;20590;-59
2023/03/20 09:55:52;;;;;;;5.28;2.25;;;;;;;;;;5094239;28;20036;-59
2023/03/20 09:58:21;;;;;;;4.30;1.90;;;;;;;;;;5094382;28;20034;-59
2023/03/20 10:00:47;;;;;;;6.18;2.13;;;;;;;;;;5094208;28;20039;-59
2023/03/20 10:03:19;;;;;;;8.15;2.75;;;;;;;;;;5094175;28;20020;-59
2023/03/20 10:05:47;;;;;;;3.90;2.05;;;;;;;;;;5093908;28;20034;-59
2023/03/20 10:08:17;;;;;;;5.93;2.28;;;;;;;;;;5094068;28;20024;-61
2023/03/20 10:10:49;;;;;;;6.80;2.08;;;;;;;;;;5093663;28;20028;-61
2023/03/20 10:13:18;;;;;;;5.32;2.22;;;;;;;;;;5094281;28;20048;-59
2023/03/20 10:16:05;;;;;;;5.85;2.05;;;;;;;;;;5093943;28;20036;-62
2023/03/20 10:18:34;;;;;;;5.15;2.17;;;;;;;;;;5093693;28;20036;-61
2023/03/20 10:21:05;;;;;;;5.68;2.10;;;;;;;;;;5093869;28;20099;-60
2023/03/20 10:23:31;;;;;;;5.85;1.77;;;;;;;;;;5093547;28;20031;-60
2023/03/20 10:26:06;;;;;;;6.82;2.47;;;;;;;;;;5092620;28;20021;-61
2023/03/20 10:28:39;;;;;;;5.88;2.10;;;;;;;;;;5093544;28;20042;-61
2023/03/20 10:31:11;;;;;;;4.28;2.00;;;;;;;;;;5093545;28;20115;-58
2023/03/20 10:33:44;;;;;;;5.07;2.20;;;;;;;;;;5093320;28;20446;-61
2023/03/20 10:36:13;;;;;;;6.28;2.22;;;;;;;;;;5093851;28;20036;-61
2023/03/20 10:38:45;;;;;;;6.43;2.10;;;;;;;;;;5093510;28;20043;-60
2023/03/20 10:41:19;;;;;;;5.15;2.10;;;;;;;;;;5093728;28;20016;-62
2023/03/20 10:43:46;;;;;;;4.72;1.88;;;;;;;;;;5093368;28;20077;-59
2023/03/20 10:46:14;;;;;;;4.82;2.17;;;;;;;;;;5093744;28;20361;-59
2023/03/20 10:48:44;;;;;;;6.72;2.35;;;;;;;;;;5093337;28;20449;-59
2023/03/20 10:51:21;;;;;;;5.85;2.25;;;;;;;;;;5093580;28;20020;-58
2023/03/20 10:53:55;;;;;;;6.78;2.08;;;;;;;;;;5093238;28;20024;-59
2023/03/20 10:56:30;;;;;;;4.80;2.30;;;;;;;;;;5092665;28;20119;-59
2023/03/20 10:58:59;;;;;;;9.15;2.55;;;;;;;;;;5093160;28;20107;-59
2023/03/20 11:01:25;;;;;;;5.57;2.40;;;;;;;;;;5092825;28;20393;-59
2023/03/20 11:03:51;;;;;;;4.95;2.35;;;;;;;;;;5092937;28;20028;-59
2023/03/20 11:06:17;;;;;;;4.35;1.50;;;;;;;;;;5092993;28;20016;-60
2023/03/20 11:08:47;;;;;;;5.63;2.35;;;;;;;;;;5092861;28;20031;-59
2023/03/20 11:11:13;;;;;;;4.28;1.92;;;;;;;;;;5093078;28;20057;-59
2023/03/20 11:13:41;;;;;;;5.80;2.03;;;;;;;;;;5092662;28;20032;-59
2023/03/20 11:16:18;;;;;;;6.18;2.42;;;;;;;;;;5092659;28;20051;-59
2023/03/20 11:18:44;;;;;;;5.07;2.13;;;;;;;;;;5091600;28;20486;-59
2023/03/20 11:21:21;;;;;;;4.78;2.05;;;;;;;;;;5092797;28;20473;-60
2023/03/20 11:23:47;;;;;;;5.85;2.28;;;;;;;;;;5092722;28;20107;-61
2023/03/20 11:26:15;;;;;;;5.95;1.67;;;;;;;;;;5092762;28;20027;-60
2023/03/20 11:28:48;;;;;;;6.03;2.20;;;;;;;;;;5092424;28;20035;-60
2023/03/20 11:31:19;;;;;;;4.70;2.13;;;;;;;;;;5092715;28;20032;-61
2023/03/20 11:34:00;;;;;;;6.10;2.30;;;;;;;;;;5092243;28;20028;-60
2023/03/20 11:36:31;;;;;;;5.40;2.17;;;;;;;;;;5092084;28;20121;-60
2023/03/20 11:39:00;;;;;;;5.85;2.50;;;;;;;;;;5092001;28;20035;-61
2023/03/20 11:41:27;;;;;;;7.28;2.33;;;;;;;;;;5092059;28;20095;-61
2023/03/20 11:43:54;;;;;;;5.65;2.40;;;;;;;;;;5092242;28;20024;-60
2023/03/20 11:46:24;;;;;;;4.60;1.90;;;;;;;;;;5091717;28;20365;-59
2023/03/20 11:49:26;;;;;;;6.70;2.17;;;;;;;;;;5092136;28;20077;-60
2023/03/20 11:51:53;;;;;;;5.35;2.10;;;;;;;;;;5029648;28;20105;-60
2023/03/20 11:54:21;;;;;;;6.18;2.15;;;;;;;;;;5079810;28;20072;-60
2023/03/20 11:56:51;;;;;;;3.88;2.17;;;;;;;;;;5091991;28;20032;-60
2023/03/20 11:59:18;;;;;;;4.25;2.03;;;;;;;;;;5092089;28;20393;-60
2023/03/20 12:01:45;;;;;;;5.93;1.90;;;;;;;;;;5091041;28;20035;-60
2023/03/20 12:04:31;;;;;;;6.05;2.22;;;;;;;;;;5092039;28;20059;-61
2023/03/20 12:07:01;;;;;;;7.50;2.28;;;;;;;;;;5091865;28;20028;-60
2023/03/20 12:09:38;;;;;;;6.53;2.25;;;;;;;;;;5091597;28;20508;-60
2023/03/20 12:12:07;;;;;;;4.88;2.22;;;;;;;;;;5091491;28;20040;-60
2023/03/20 12:14:38;;;;;;;6.18;2.40;;;;;;;;;;5091390;28;20034;-61
2023/03/20 12:17:17;;;;;;;6.03;2.30;;;;;;;;;;5091767;28;20046;-60
2023/03/20 12:19:45;;;;;;;5.93;1.83;;;;;;;;;;5091628;28;20109;-61
2023/03/20 12:22:20;;;;;;;4.95;1.80;;;;;;;;;;5091973;28;20055;-60
2023/03/20 12:24:50;;;;;;;5.55;2.72;;;;;;;;;;5091383;28;20051;-60
2023/03/20 12:27:28;;;;;;;6.80;2.67;;;;;;;;;;5091565;28;20024;-60
2023/03/20 12:29:58;;;;;;;6.15;2.25;;;;;;;;;;5091482;28;20036;-61
2023/03/20 12:32:35;;;;;;;5.72;1.90;;;;;;;;;;5091209;28;20093;-60
2023/03/20 12:35:12;;;;;;;6.70;2.30;;;;;;;;;;5091397;28;20211;-60
2023/03/20 12:37:38;;;;;;;4.25;1.77;;;;;;;;;;5091150;28;20117;-60
2023/03/20 12:40:05;;;;;;;5.82;2.20;;;;;;;;;;5091233;28;20024;-60
2023/03/20 12:42:31;;;;;;;7.32;2.83;;;;;;;;;;5090970;28;20028;-61
2023/03/20 12:45:09;;;;;;;5.63;2.25;;;;;;;;;;5091291;28;20384;-60
2023/03/20 12:47:46;;;;;;;5.97;1.80;;;;;;;;;;5090986;28;20062;-60
2023/03/20 12:50:20;;;;;;;5.80;1.88;;;;;;;;;;5090755;28;20024;-59
2023/03/20 12:52:56;;;;;;;6.00;2.42;;;;;;;;;;5091256;28;20484;-59
2023/03/20 12:55:26;;;;;;;5.93;2.15;;;;;;;;;;5090908;28;20032;-59
2023/03/20 12:58:06;;;;;;;6.03;2.00;;;;;;;;;;5091048;28;20102;-60
2023/03/20 13:00:51;;;;;;;8.48;2.55;;;;;;;;;;5090863;28;20024;-60
2023/03/20 13:03:26;;;;;;;7.55;2.22;;;;;;;;;;5090990;28;20024;-60
2023/03/20 13:05:55;;;;;;;5.10;1.98;;;;;;;;;;5091108;28;20480;-60
2023/03/20 13:08:59;;;;;;;6.18;2.22;;;;;;;;;;5090738;28;20055;-60
2023/03/20 13:11:30;;;;;;;6.68;2.05;;;;;;;;;;5028541;28;20084;-60
2023/03/20 13:14:00;;;;;;;4.90;1.90;;;;;;;;;;5028593;28;20476;-60
2023/03/20 13:16:34;;;;;;;4.85;2.05;;;;;;;;;;5061326;28;20051;-60
2023/03/20 13:19:00;;;;;;;4.75;2.00;;;;;;;;;;5090882;28;20059;-60
2023/03/20 13:21:34;;;;;;;6.55;2.05;;;;;;;;;;5090682;28;20047;-59
2023/03/20 13:24:09;;;;;;;6.32;2.28;;;;;;;;;;5090960;28;20099;-60
2023/03/20 13:26:41;;;;;;;7.65;2.40;;;;;;;;;;5090580;28;20396;-60
2023/03/20 13:29:26;;;;;;;7.97;2.60;;;;;;;;;;5090846;28;20028;-60
2023/03/20 13:31:58;;;;;;;6.40;2.30;;;;;;;;;;5090890;28;20024;-59
2023/03/20 13:34:39;;;;;;;7.43;1.85;;;;;;;;;;5090411;28;20078;-59
2023/03/20 13:37:05;;;;;;;6.05;2.10;;;;;;;;;;5090923;28;20387;-60
2023/03/20 13:39:51;;;;;;;7.30;2.00;;;;;;;;;;5090529;28;20034;-60
2023/03/20 13:42:20;;;;;;;7.13;2.20;;;;;;;;;;5090675;28;20051;-59
2023/03/20 13:44:47;;;;;;;5.13;1.92;;;;;;;;;;5091078;28;20032;-60
2023/03/20 13:47:16;;;;;;;6.90;2.35;;;;;;;;;;5090899;28;20025;-60
2023/03/20 13:49:46;;;;;;;6.53;2.10;;;;;;;;;;5090651;28;20024;-60
2023/03/20 13:52:12;;;;;;;5.57;1.80;;;;;;;;;;5090764;28;20051;-60
2023/03/20 13:55:01;;;;;;;6.75;2.10;;;;;;;;;;5090370;28;20071;-60
2023/03/20 13:57:46;;;;;;;4.57;2.20;;;;;;;;;;5061962;28;20070;-60
2023/03/20 14:00:19;;;;;;;6.00;1.83;;;;;;;;;;5090998;28;20032;-61
2023/03/20 14:02:45;;;;;;;5.13;2.08;;;;;;;;;;5094534;28;20074;-60
2023/03/20 14:05:13;;;;;;;6.57;2.05;;;;;;;;;;5094159;28;20115;-60
2023/03/20 14:07:43;;;;;;;6.25;1.63;;;;;;;;;;5093881;28;20063;-61
2023/03/20 14:10:21;;;;;;;5.97;1.90;;;;;;;;;;5094086;28;20028;-60
2023/03/20 14:12:53;;;;;;;5.38;1.88;;;;;;;;;;5094508;28;20036;-60
2023/03/20 14:15:20;;;;;;;8.10;1.95;;;;;;;;;;5093724;28;20034;-60
2023/03/20 14:17:47;;;;;;;6.72;1.90;;;;;;;;;;5094088;28;20384;-60
2023/03/20 14:20:23;;;;;;;6.97;2.38;;;;;;;;;;5094031;28;20028;-60
2023/03/20 14:22:49;;;;;;;4.97;2.10;;;;;;;;;;5093585;28;20035;-60
2023/03/20 14:25:20;;;;;;;5.72;2.30;;;;;;;;;;5094109;28;20016;-60
2023/03/20 14:27:53;;;;;;;7.70;2.60;;;;;;;;;;5093970;28;20553;-60
2023/03/20 14:30:31;;;;;;;7.88;2.50;;;;;;;;;;5093298;28;20016;-60
2023/03/20 14:33:05;;;;;;;7.65;2.80;;;;;;;;;;5093573;28;20024;-59
2023/03/20 14:35:35;;;;;;;7.50;2.75;;;;;;;;;;5093351;28;20068;-61
2023/03/20 14:38:13;;;;;;;7.03;2.40;;;;;;;;;;5093680;28;20032;-61
2023/03/20 14:41:03;;;;;;;7.15;2.20;;;;;;;;;;5093333;28;20085;-60
2023/03/20 14:43:41;;;;;;;5.32;2.38;;;;;;;;;;5085088;28;20032;-60
2023/03/20 14:46:20;;;;;;;7.53;2.25;;;;;;;;;;5093492;28;20495;-60
2023/03/20 14:48:48;;;;;;;5.63;2.38;;;;;;;;;;5093884;28;20066;-60
2023/03/20 14:51:20;;;;;;;5.47;2.00;;;;;;;;;;5093586;28;20054;-60
2023/03/20 14:53:55;;;;;;;8.60;2.10;;;;;;;;;;5093547;28;20020;-61
2023/03/20 14:56:26;;;;;;;6.60;2.00;;;;;;;;;;5093139;28;20416;-60